createdAt,value
2023-04-23T00:01:28.684Z,13.66
2023-04-23T00:04:01.933Z,13.62
2023-04-23T00:06:34.346Z,13.61
2023-04-23T00:09:08.016Z,13.55
2023-04-23T00:11:41.095Z,13.51
2023-04-23T00:14:14.041Z,13.51
2023-04-23T00:16:46.770Z,13.46
2023-04-23T00:19:19.370Z,13.40
2023-04-23T00:21:51.597Z,13.39
2023-04-23T00:24:23.358Z,13.39
2023-04-23T00:26:55.207Z,13.35
2023-04-23T00:29:27.072Z,13.29
2023-04-23T00:31:58.919Z,13.31
2023-04-23T00:34:31.129Z,13.33
2023-04-23T00:37:06.081Z,13.32
2023-04-23T00:39:38.791Z,13.25
2023-04-23T00:42:12.419Z,13.18
2023-04-23T00:44:45.317Z,13.20
2023-04-23T00:47:16.472Z,13.22
2023-04-23T00:49:48.649Z,13.14
2023-04-23T00:52:20.412Z,13.14
2023-04-23T00:54:52.244Z,13.12
2023-04-23T00:57:24.402Z,13.08
2023-04-23T00:59:58.255Z,13.07
2023-04-23T01:02:32.199Z,13.08
2023-04-23T01:05:05.615Z,13.10
2023-04-23T01:07:38.585Z,13.11
2023-04-23T01:10:13.131Z,13.04
2023-04-23T01:12:44.950Z,12.98
2023-04-23T01:15:16.724Z,12.89
2023-04-23T01:17:48.892Z,12.82
2023-04-23T01:20:20.785Z,12.86
2023-04-23T01:22:53.141Z,12.90
2023-04-23T01:25:25.104Z,12.88
2023-04-23T01:27:58.096Z,12.86
2023-04-23T01:30:30.899Z,12.83
2023-04-23T01:33:02.101Z,12.80
2023-04-23T01:35:34.942Z,12.77
2023-04-23T01:38:08.138Z,12.75
2023-04-23T01:40:40.667Z,12.74
2023-04-23T01:43:12.883Z,12.75
2023-04-23T01:45:45.672Z,12.73
2023-04-23T01:48:17.536Z,12.73
2023-04-23T01:50:49.616Z,12.71
2023-04-23T01:53:21.492Z,12.70
2023-04-23T01:55:54.885Z,12.68
2023-04-23T01:58:26.956Z,12.62
2023-04-23T02:00:58.990Z,12.61
2023-04-23T02:03:34.485Z,12.58
2023-04-23T02:06:06.892Z,12.62
2023-04-23T02:08:38.740Z,12.60
2023-04-23T02:11:14.593Z,12.59
2023-04-23T02:13:48.113Z,12.58
2023-04-23T02:16:20.914Z,12.57
2023-04-23T02:18:51.767Z,12.59
2023-04-23T02:21:24.706Z,12.49
2023-04-23T02:23:57.440Z,12.49
2023-04-23T02:26:29.707Z,12.41
2023-04-23T02:29:01.517Z,12.36
2023-04-23T02:31:33.604Z,12.24
2023-04-23T02:34:05.439Z,12.23
2023-04-23T02:36:38.360Z,12.17
2023-04-23T02:39:10.937Z,12.22
2023-04-23T02:41:42.598Z,12.28
2023-04-23T02:44:14.309Z,12.23
2023-04-23T02:46:46.572Z,12.25
2023-04-23T02:49:20.145Z,12.16
2023-04-23T02:51:52.349Z,12.13
2023-04-23T02:54:25.105Z,12.13
2023-04-23T02:56:57.433Z,12.09
2023-04-23T02:59:29.240Z,12.09
2023-04-23T03:02:01.683Z,11.99
2023-04-23T03:04:33.581Z,11.90
2023-04-23T03:07:05.535Z,11.85
2023-04-23T03:09:37.748Z,11.73
2023-04-23T03:12:09.663Z,11.82
2023-04-23T03:14:41.975Z,11.77
2023-04-23T03:17:12.686Z,11.70
2023-04-23T03:19:44.981Z,11.62
2023-04-23T03:22:17.320Z,11.58
2023-04-23T03:24:49.145Z,11.56
2023-04-23T03:27:20.881Z,11.58
2023-04-23T03:29:53.136Z,11.55
2023-04-23T03:32:25.879Z,11.53
2023-04-23T03:34:56.140Z,11.50
2023-04-23T03:37:28.451Z,11.46
2023-04-23T03:40:01.462Z,11.44
2023-04-23T03:42:35.120Z,11.40
2023-04-23T03:45:09.505Z,11.41
2023-04-23T03:47:41.796Z,11.37
2023-04-23T03:50:14.235Z,11.36
2023-04-23T03:52:46.991Z,11.35
2023-04-23T03:55:25.296Z,11.34
2023-04-23T03:57:57.206Z,11.29
2023-04-23T04:00:31.322Z,11.25
2023-04-23T04:03:04.495Z,11.31
2023-04-23T04:05:37.318Z,11.34
2023-04-23T04:08:09.343Z,11.24
2023-04-23T04:10:41.824Z,11.27
2023-04-23T04:13:16.074Z,11.16
2023-04-23T04:15:48.339Z,11.12
2023-04-23T04:18:21.187Z,11.15
2023-04-23T04:20:52.211Z,11.21
2023-04-23T04:23:24.216Z,11.26
2023-04-23T04:25:57.662Z,11.21
2023-04-23T04:28:30.177Z,11.08
2023-04-23T04:31:02.071Z,11.04
2023-04-23T04:33:35.740Z,11.17
2023-04-23T04:36:09.541Z,11.19
2023-04-23T04:38:41.764Z,11.21
2023-04-23T04:41:13.879Z,11.24
2023-04-23T04:43:46.096Z,11.28
2023-04-23T04:46:19.900Z,11.28
2023-04-23T04:48:52.105Z,11.28
2023-04-23T04:51:24.124Z,11.30
2023-04-23T04:53:56.682Z,11.33
2023-04-23T04:56:28.608Z,11.37
2023-04-23T04:59:00.446Z,11.41
2023-04-23T05:01:33.333Z,11.40
2023-04-23T05:04:05.615Z,11.39
2023-04-23T05:06:37.678Z,11.44
2023-04-23T05:09:10.677Z,11.54
2023-04-23T05:11:42.946Z,11.55
2023-04-23T05:14:14.782Z,11.63
2023-04-23T05:16:46.766Z,11.73
2023-04-23T05:19:18.818Z,11.86
2023-04-23T05:21:50.884Z,11.94
2023-04-23T05:24:22.877Z,12.01
2023-04-23T05:26:54.923Z,12.05
2023-04-23T05:29:26.839Z,12.12
2023-04-23T05:31:59.047Z,12.19
2023-04-23T05:34:30.978Z,12.22
2023-04-23T05:37:02.830Z,12.33
2023-04-23T05:39:34.714Z,12.38
2023-04-23T05:42:07.173Z,12.46
2023-04-23T05:44:42.436Z,12.56
2023-04-23T05:47:16.434Z,12.64
2023-04-23T05:49:48.627Z,12.69
2023-04-23T05:52:27.405Z,12.71
2023-04-23T05:54:59.617Z,12.80
2023-04-23T05:57:31.565Z,12.87
2023-04-23T06:00:03.658Z,12.94
2023-04-23T06:02:44.576Z,13.02
2023-04-23T06:05:16.724Z,13.07
2023-04-23T06:07:48.974Z,13.14
2023-04-23T06:10:21.025Z,13.19
2023-04-23T06:12:55.275Z,13.26
2023-04-23T06:15:27.426Z,13.31
2023-04-23T06:17:59.637Z,13.39
2023-04-23T06:20:32.059Z,13.47
2023-04-23T06:23:06.525Z,13.56
2023-04-23T06:25:38.709Z,13.62
2023-04-23T06:28:11.818Z,13.73
2023-04-23T06:31:05.671Z,13.81
2023-04-23T06:33:38.504Z,13.89
2023-04-23T06:36:11.921Z,13.98
2023-04-23T06:38:45.643Z,14.06
2023-04-23T06:41:18.093Z,14.16
2023-04-23T06:43:50.001Z,14.23
2023-04-23T06:46:37.504Z,14.31
2023-04-23T06:49:09.791Z,14.38
2023-04-23T06:51:41.713Z,14.51
2023-04-23T06:54:13.654Z,14.60
2023-04-23T06:56:45.615Z,14.69
2023-04-23T06:59:17.824Z,14.79
2023-04-23T07:01:57.084Z,14.89
2023-04-23T07:04:28.998Z,14.97
2023-04-23T07:07:05.179Z,15.08
2023-04-23T07:09:38.081Z,15.14
2023-04-23T07:12:10.534Z,15.23
2023-04-23T07:14:42.449Z,15.31
2023-04-23T07:17:13.920Z,15.38
2023-04-23T07:19:45.694Z,15.45
2023-04-23T07:22:17.614Z,15.50
2023-04-23T07:24:49.513Z,15.56
2023-04-23T07:27:21.786Z,15.62
2023-04-23T07:29:53.702Z,15.66
2023-04-23T07:32:28.433Z,15.72
2023-04-23T07:35:00.701Z,15.80
2023-04-23T07:37:33.155Z,15.87
2023-04-23T07:40:08.824Z,15.96
2023-04-23T07:42:45.928Z,16.03
2023-04-23T07:45:19.347Z,16.10
2023-04-23T07:47:52.788Z,16.17
2023-04-23T07:50:28.475Z,16.27
2023-04-23T07:53:05.614Z,16.36
2023-04-23T07:55:39.118Z,16.45
2023-04-23T07:58:14.923Z,16.49
2023-04-23T08:00:50.766Z,16.56
2023-04-23T08:03:23.415Z,16.70
2023-04-23T08:05:56.806Z,16.77
2023-04-23T08:08:31.054Z,16.83
2023-04-23T08:11:04.830Z,16.94
2023-04-23T08:13:37.062Z,17.04
2023-04-23T08:16:09.281Z,17.11
2023-04-23T08:18:42.059Z,17.18
2023-04-23T08:21:14.440Z,17.25
2023-04-23T08:23:47.018Z,17.32
2023-04-23T08:26:19.133Z,17.40
2023-04-23T08:28:51.277Z,17.44
2023-04-23T08:31:26.953Z,17.54
2023-04-23T08:34:00.205Z,17.60
2023-04-23T08:36:33.023Z,17.65
2023-04-23T08:39:05.863Z,17.72
2023-04-23T08:41:40.590Z,17.80
2023-04-23T08:44:27.934Z,17.85
2023-04-23T08:47:05.562Z,17.93
2023-04-23T08:49:38.410Z,17.99
2023-04-23T08:52:26.195Z,18.09
2023-04-23T08:55:10.625Z,18.17
2023-04-23T08:57:43.824Z,18.27
2023-04-23T09:00:19.091Z,18.34
2023-04-23T09:02:51.742Z,18.39
2023-04-23T09:05:32.138Z,18.47
2023-04-23T09:08:04.388Z,18.62
2023-04-23T09:10:52.032Z,18.66
2023-04-23T09:13:24.129Z,18.76
2023-04-23T09:15:56.030Z,18.79
2023-04-23T09:18:27.848Z,18.88
2023-04-23T09:21:04.838Z,18.96
2023-04-23T09:23:41.319Z,19.07
2023-04-23T09:26:24.909Z,19.14
2023-04-23T09:28:58.534Z,19.23
2023-04-23T09:31:32.880Z,19.46
2023-04-23T09:34:05.511Z,19.70
2023-04-23T09:36:40.454Z,19.83
2023-04-23T09:39:16.827Z,20.00
2023-04-23T09:41:48.944Z,20.09
2023-04-23T09:44:23.547Z,20.14
2023-04-23T09:46:55.597Z,20.35
2023-04-23T09:49:27.250Z,20.42
2023-04-23T09:52:06.721Z,20.53
2023-04-23T09:54:38.592Z,20.65
2023-04-23T09:57:10.369Z,20.81
2023-04-23T09:59:48.943Z,20.97
2023-04-23T10:02:30.076Z,21.17
2023-04-23T10:05:21.077Z,21.26
2023-04-23T10:07:54.696Z,21.38
2023-04-23T10:10:27.873Z,21.48
2023-04-23T10:13:01.080Z,21.53
2023-04-23T10:15:34.145Z,21.62
2023-04-23T10:18:09.136Z,21.79
2023-04-23T10:20:42.824Z,21.88
2023-04-23T10:23:16.535Z,21.88
2023-04-23T10:25:50.064Z,21.90
2023-04-23T10:28:29.114Z,21.95
2023-04-23T10:31:03.961Z,21.99
2023-04-23T10:33:42.906Z,22.15
2023-04-23T10:36:30.128Z,22.28
2023-04-23T10:39:04.328Z,22.33
2023-04-23T10:41:39.633Z,22.45
2023-04-23T10:44:16.678Z,22.41
2023-04-23T10:46:56.747Z,22.33
2023-04-23T10:49:31.450Z,22.22
2023-04-23T10:54:41.482Z,22.08
2023-04-23T10:57:14.211Z,22.02
2023-04-23T10:59:58.932Z,22.02
2023-04-23T11:02:46.178Z,22.12
2023-04-23T11:05:18.682Z,22.19
2023-04-23T11:08:18.168Z,22.23
2023-04-23T11:11:02.781Z,22.27
2023-04-23T11:13:34.766Z,22.34
2023-04-23T11:16:22.526Z,22.30
2023-04-23T11:19:06.342Z,22.31
2023-04-23T11:21:59.462Z,22.29
2023-04-23T11:24:32.427Z,22.31
2023-04-23T11:27:06.205Z,22.43
2023-04-23T11:29:40.418Z,22.51
2023-04-23T11:32:14.261Z,22.59
2023-04-23T11:34:47.826Z,22.60
2023-04-23T11:37:21.084Z,22.51
2023-04-23T11:39:52.937Z,22.39
2023-04-23T11:42:25.914Z,22.29
2023-04-23T11:44:57.671Z,22.27
2023-04-23T11:47:29.528Z,22.26
2023-04-23T11:50:03.935Z,22.21
2023-04-23T11:52:37.243Z,22.17
2023-04-23T11:55:11.555Z,22.22
2023-04-23T11:57:46.200Z,22.23
2023-04-23T12:00:21.196Z,22.17
2023-04-23T12:02:58.957Z,22.07
2023-04-23T12:05:33.649Z,21.94
2023-04-23T12:08:13.461Z,21.86
2023-04-23T12:10:50.030Z,21.78
2023-04-23T12:13:25.075Z,21.76
2023-04-23T12:15:59.594Z,21.65
2023-04-23T12:18:32.699Z,21.57
2023-04-23T12:21:09.458Z,21.55
2023-04-23T12:23:44.793Z,21.45
2023-04-23T12:26:21.361Z,21.41
2023-04-23T12:28:55.425Z,21.38
2023-04-23T12:31:28.996Z,21.36
2023-04-23T12:34:05.424Z,21.36
2023-04-23T12:36:40.949Z,21.41
2023-04-23T12:39:33.752Z,21.29
2023-04-23T12:42:09.912Z,21.27
2023-04-23T12:44:42.245Z,21.24
2023-04-23T12:47:15.499Z,21.31
2023-04-23T12:49:49.569Z,21.29
2023-04-23T12:52:21.486Z,21.39
2023-04-23T12:54:56.772Z,21.26
2023-04-23T12:57:29.067Z,21.31
2023-04-23T13:00:00.833Z,21.39
2023-04-23T13:02:33.345Z,21.31
2023-04-23T13:05:07.523Z,21.19
2023-04-23T13:07:39.580Z,21.13
2023-04-23T13:10:13.769Z,21.16
2023-04-23T13:12:46.802Z,21.08
2023-04-23T13:15:20.772Z,21.15
2023-04-23T13:17:53.414Z,21.11
2023-04-23T13:20:31.041Z,21.11
2023-04-23T13:23:04.060Z,21.16
2023-04-23T13:25:36.354Z,21.12
2023-04-23T13:28:08.624Z,21.09
2023-04-23T13:30:40.851Z,21.07
2023-04-23T13:33:16.917Z,21.04
2023-04-23T13:35:50.328Z,20.93
2023-04-23T13:38:22.898Z,20.91
2023-04-23T13:40:55.493Z,20.80
2023-04-23T13:43:30.516Z,20.69
2023-04-23T13:46:03.222Z,20.60
2023-04-23T13:48:37.072Z,20.56
2023-04-23T13:51:27.094Z,20.35
2023-04-23T13:54:05.094Z,20.28
2023-04-23T13:56:38.452Z,20.11
2023-04-23T13:59:18.918Z,19.95
2023-04-23T14:01:53.328Z,19.80
2023-04-23T14:04:27.160Z,19.66
2023-04-23T14:07:00.182Z,19.32
2023-04-23T14:09:32.962Z,19.02
2023-04-23T14:12:06.874Z,18.90
2023-04-23T14:14:39.190Z,18.87
2023-04-23T14:17:11.892Z,19.02
2023-04-23T14:19:44.351Z,19.22
2023-04-23T14:22:16.548Z,19.33
2023-04-23T14:24:52.687Z,19.39
2023-04-23T14:27:30.627Z,19.32
2023-04-23T14:30:15.045Z,19.41
2023-04-23T14:32:50.491Z,19.56
2023-04-23T14:35:35.637Z,19.51
2023-04-23T14:38:14.711Z,19.47
2023-04-23T14:40:46.801Z,19.50
2023-04-23T14:43:19.191Z,19.51
2023-04-23T14:45:52.022Z,19.54
2023-04-23T14:48:24.190Z,19.47
2023-04-23T14:50:56.196Z,19.42
2023-04-23T14:53:28.221Z,19.37
2023-04-23T14:56:00.405Z,19.32
2023-04-23T14:58:32.472Z,19.36
2023-04-23T15:01:06.995Z,19.35
2023-04-23T15:03:40.510Z,19.28
2023-04-23T15:06:12.825Z,19.31
2023-04-23T15:08:46.252Z,19.32
2023-04-23T15:11:18.710Z,19.31
2023-04-23T15:14:03.859Z,19.29
2023-04-23T15:19:12.891Z,19.33
2023-04-23T15:21:44.697Z,19.35
2023-04-23T15:24:17.378Z,19.36
2023-04-23T15:26:49.668Z,19.36
2023-04-23T15:29:23.100Z,19.35
2023-04-23T15:31:58.249Z,19.34
2023-04-23T15:34:30.579Z,19.32
2023-04-23T15:37:03.921Z,19.30
2023-04-23T15:39:36.253Z,19.27
2023-04-23T15:42:08.691Z,19.23
2023-04-23T15:44:41.761Z,19.21
2023-04-23T15:47:16.499Z,19.19
2023-04-23T15:49:51.190Z,19.20
2023-04-23T15:52:23.422Z,19.20
2023-04-23T15:54:56.261Z,19.21
2023-04-23T15:57:29.000Z,19.22
2023-04-23T16:00:01.950Z,19.22
2023-04-23T16:02:44.851Z,19.10
2023-04-23T16:05:19.109Z,19.11
2023-04-23T16:07:51.731Z,19.11
2023-04-23T16:10:24.282Z,19.08
2023-04-23T16:12:58.955Z,19.02
2023-04-23T16:15:32.496Z,18.98
2023-04-23T16:18:06.136Z,18.94
2023-04-23T16:20:39.620Z,18.87
2023-04-23T16:23:11.874Z,18.79
2023-04-23T16:25:46.710Z,18.70
2023-04-23T16:28:19.948Z,18.61
2023-04-23T16:30:52.146Z,18.58
2023-04-23T16:33:25.870Z,18.57
2023-04-23T16:35:59.786Z,18.54
2023-04-23T16:38:32.311Z,18.51
2023-04-23T16:41:04.420Z,18.49
2023-04-23T16:43:37.771Z,18.47
2023-04-23T16:46:11.639Z,18.44
2023-04-23T16:48:44.650Z,18.39
2023-04-23T16:51:32.526Z,18.41
2023-04-23T16:54:05.263Z,18.38
2023-04-23T16:56:37.964Z,18.34
2023-04-23T16:59:11.680Z,18.30
2023-04-23T17:01:46.928Z,18.28
2023-04-23T17:04:19.148Z,18.28
2023-04-23T17:06:52.230Z,18.27
2023-04-23T17:09:28.109Z,18.26
2023-04-23T17:12:00.875Z,18.24
2023-04-23T17:14:32.866Z,18.21
2023-04-23T17:17:05.626Z,18.18
2023-04-23T17:19:38.921Z,18.20
2023-04-23T17:22:13.626Z,18.18
2023-04-23T17:24:46.164Z,18.19
2023-04-23T17:27:18.822Z,18.18
2023-04-23T17:29:51.894Z,18.17
2023-04-23T17:32:24.291Z,18.16
2023-04-23T17:35:06.311Z,18.21
2023-04-23T17:37:41.909Z,18.53
2023-04-23T17:40:14.920Z,18.72
2023-04-23T17:42:47.209Z,18.85
2023-04-23T17:45:19.973Z,18.96
2023-04-23T17:47:52.130Z,19.04
2023-04-23T17:50:24.164Z,19.06
2023-04-23T17:52:56.000Z,19.07
2023-04-23T17:55:27.937Z,19.14
2023-04-23T17:58:00.511Z,19.17
2023-04-23T18:00:30.821Z,19.18
2023-04-23T18:03:03.191Z,19.19
2023-04-23T18:05:35.348Z,19.21
2023-04-23T18:08:08.127Z,19.22
2023-04-23T18:10:40.293Z,19.22
2023-04-23T18:13:12.406Z,19.18
2023-04-23T18:15:49.477Z,19.24
2023-04-23T18:18:22.351Z,19.24
2023-04-23T18:20:54.467Z,19.28
2023-04-23T18:23:26.766Z,19.26
2023-04-23T18:26:01.317Z,19.24
2023-04-23T18:28:34.980Z,19.27
2023-04-23T18:31:07.531Z,19.27
2023-04-23T18:33:54.424Z,19.28
2023-04-23T18:36:33.237Z,19.32
2023-04-23T18:39:07.331Z,19.32
2023-04-23T18:41:39.182Z,19.29
2023-04-23T18:44:13.033Z,19.27
2023-04-23T18:46:45.451Z,19.20
2023-04-23T18:49:44.755Z,19.18
2023-04-23T18:52:17.069Z,19.17
2023-04-23T18:54:52.308Z,19.19
2023-04-23T18:57:24.439Z,19.20
2023-04-23T18:59:56.716Z,19.20
2023-04-23T19:05:07.896Z,19.22
2023-04-23T19:07:42.316Z,19.21
2023-04-23T19:10:17.405Z,19.15
2023-04-23T19:12:51.387Z,19.20
2023-04-23T19:15:24.295Z,18.80
2023-04-23T19:17:56.917Z,18.64
2023-04-23T19:20:31.082Z,18.47
2023-04-23T19:23:05.209Z,18.33
2023-04-23T19:25:37.792Z,18.27
2023-04-23T19:28:13.274Z,18.21
2023-04-23T19:30:46.091Z,18.05
2023-04-23T19:33:21.528Z,18.00
2023-04-23T19:35:54.112Z,17.98
2023-04-23T19:38:29.463Z,17.95
2023-04-23T19:41:02.082Z,17.93
2023-04-23T19:43:35.494Z,17.88
2023-04-23T19:46:07.675Z,17.85
2023-04-23T19:48:39.710Z,17.82
2023-04-23T19:51:12.064Z,17.75
2023-04-23T19:53:44.179Z,17.73
2023-04-23T19:56:17.871Z,17.67
2023-04-23T19:58:50.648Z,17.57
2023-04-23T20:01:23.930Z,17.53
2023-04-23T20:03:59.604Z,17.49
2023-04-23T20:06:40.901Z,17.43
2023-04-23T20:09:21.154Z,17.36
2023-04-23T20:11:54.034Z,17.33
2023-04-23T20:14:24.774Z,17.31
2023-04-23T20:16:57.833Z,17.31
2023-04-23T20:19:31.387Z,17.22
2023-04-23T20:22:04.403Z,17.09
2023-04-23T20:24:40.407Z,17.08
2023-04-23T20:27:12.555Z,17.06
2023-04-23T20:29:45.001Z,16.87
2023-04-23T20:32:17.587Z,16.78
2023-04-23T20:34:51.224Z,16.78
2023-04-23T20:37:27.005Z,16.75
2023-04-23T20:40:00.017Z,16.80
2023-04-23T20:42:32.406Z,16.80
2023-04-23T20:45:06.735Z,16.78
2023-04-23T20:47:39.949Z,16.74
2023-04-23T20:50:14.759Z,16.67
2023-04-23T20:52:48.337Z,16.65
2023-04-23T20:55:22.372Z,16.65
2023-04-23T20:57:54.658Z,16.62
2023-04-23T21:00:28.035Z,16.58
2023-04-23T21:03:00.571Z,16.59
2023-04-23T21:05:32.834Z,16.56
2023-04-23T21:08:06.076Z,16.55
2023-04-23T21:10:40.383Z,16.48
2023-04-23T21:13:13.589Z,16.39
2023-04-23T21:15:46.090Z,16.34
2023-04-23T21:18:20.263Z,16.30
2023-04-23T21:20:52.310Z,16.21
2023-04-23T21:23:26.553Z,16.07
2023-04-23T21:25:59.482Z,15.98
2023-04-23T21:28:32.107Z,15.82
2023-04-23T21:31:12.489Z,15.80
2023-04-23T21:33:45.451Z,15.71
2023-04-23T21:36:16.817Z,15.61
2023-04-23T21:38:50.155Z,15.64
2023-04-23T21:41:23.015Z,15.61
2023-04-23T21:43:56.711Z,15.64
2023-04-23T21:46:30.546Z,15.68
2023-04-23T21:49:03.015Z,15.75
2023-04-23T21:51:37.059Z,15.68
2023-04-23T21:54:11.084Z,15.69
2023-04-23T21:56:43.713Z,15.70
2023-04-23T21:59:19.162Z,15.71
2023-04-23T22:01:52.068Z,15.72
2023-04-23T22:04:28.051Z,15.70
2023-04-23T22:07:03.703Z,15.69
2023-04-23T22:09:36.015Z,15.67
2023-04-23T22:12:09.512Z,15.60
2023-04-23T22:14:41.692Z,15.50
2023-04-23T22:17:13.802Z,15.32
2023-04-23T22:19:46.411Z,15.08
2023-04-23T22:22:17.156Z,14.95
2023-04-23T22:24:49.835Z,15.06
2023-04-23T22:27:22.169Z,15.15
2023-04-23T22:29:55.024Z,15.10
2023-04-23T22:32:27.389Z,15.09
2023-04-23T22:35:00.229Z,15.15
2023-04-23T22:37:33.201Z,15.20
2023-04-23T22:40:07.618Z,15.15
2023-04-23T22:42:39.575Z,15.17
2023-04-23T22:45:12.135Z,15.09
2023-04-23T22:47:43.863Z,14.98
2023-04-23T22:50:16.873Z,14.95
2023-04-23T22:52:48.929Z,14.99
2023-04-23T22:55:20.909Z,15.04
2023-04-23T22:57:53.611Z,15.07
2023-04-23T23:00:26.545Z,14.98
2023-04-23T23:02:57.513Z,14.94
2023-04-23T23:05:29.875Z,14.91
2023-04-23T23:08:02.333Z,14.96
2023-04-23T23:10:34.661Z,15.04
2023-04-23T23:13:07.247Z,15.12
2023-04-23T23:15:39.235Z,15.17
2023-04-23T23:18:11.369Z,15.23
2023-04-23T23:20:45.176Z,15.17
2023-04-23T23:23:17.104Z,15.18
2023-04-23T23:25:49.112Z,15.25
2023-04-23T23:28:21.359Z,15.24
2023-04-23T23:30:53.776Z,15.22
2023-04-23T23:33:27.314Z,15.19
2023-04-23T23:36:00.111Z,15.21
2023-04-23T23:38:32.390Z,15.22
2023-04-23T23:41:04.432Z,15.21
2023-04-23T23:43:36.782Z,15.24
2023-04-23T23:46:09.176Z,15.21
2023-04-23T23:48:41.207Z,15.21
2023-04-23T23:51:12.465Z,15.22
2023-04-23T23:53:45.029Z,15.24
2023-04-23T23:56:17.213Z,15.25
2023-04-23T23:58:49.808Z,15.25
